sensor_id;sensor_type;location;lat;lon;timestamp;pressure;altitude;pressure_sealevel;temperature
41940;BMP180;23057;48.554;14.454;2022-07-23T00:01:59;94037.00;;;28.70
41940;BMP180;23057;48.554;14.454;2022-07-23T00:04:30;94048.00;;;28.70
41940;BMP180;23057;48.554;14.454;2022-07-23T00:07:01;94040.00;;;28.60
41940;BMP180;23057;48.554;14.454;2022-07-23T00:09:32;94045.00;;;28.60
41940;BMP180;23057;48.554;14.454;2022-07-23T00:12:03;94054.00;;;28.60
41940;BMP180;23057;48.554;14.454;2022-07-23T00:14:34;94057.00;;;28.70
41940;BMP180;23057;48.554;14.454;2022-07-23T00:17:05;94042.00;;;28.70
41940;BMP180;23057;48.554;14.454;2022-07-23T00:19:36;94037.00;;;28.70
41940;BMP180;23057;48.554;14.454;2022-07-23T00:22:07;94041.00;;;28.60
41940;BMP180;23057;48.554;14.454;2022-07-23T00:24:38;94039.00;;;28.60
41940;BMP180;23057;48.554;14.454;2022-07-23T00:27:09;94035.00;;;28.50
41940;BMP180;23057;48.554;14.454;2022-07-23T00:29:39;94031.00;;;28.30
41940;BMP180;23057;48.554;14.454;2022-07-23T00:32:10;94028.00;;;28.20
41940;BMP180;23057;48.554;14.454;2022-07-23T00:34:41;94020.00;;;28.10
41940;BMP180;23057;48.554;14.454;2022-07-23T00:37:12;94015.00;;;28.10
41940;BMP180;23057;48.554;14.454;2022-07-23T00:39:43;94007.00;;;28.00
41940;BMP180;23057;48.554;14.454;2022-07-23T00:42:14;93995.00;;;28.00
41940;BMP180;23057;48.554;14.454;2022-07-23T00:44:44;94009.00;;;28.00
41940;BMP180;23057;48.554;14.454;2022-07-23T00:47:17;94007.00;;;27.90
41940;BMP180;23057;48.554;14.454;2022-07-23T00:49:48;94005.00;;;27.90
41940;BMP180;23057;48.554;14.454;2022-07-23T00:52:19;94002.00;;;27.80
41940;BMP180;23057;48.554;14.454;2022-07-23T00:54:50;93987.00;;;27.80
41940;BMP180;23057;48.554;14.454;2022-07-23T00:57:22;93992.00;;;27.80
41940;BMP180;23057;48.554;14.454;2022-07-23T00:59:52;93988.00;;;27.80
41940;BMP180;23057;48.554;14.454;2022-07-23T01:02:25;93986.00;;;27.90
41940;BMP180;23057;48.554;14.454;2022-07-23T01:04:56;93985.00;;;27.90
41940;BMP180;23057;48.554;14.454;2022-07-23T01:07:28;93985.00;;;28.00
41940;BMP180;23057;48.554;14.454;2022-07-23T01:10:00;93981.00;;;28.00
41940;BMP180;23057;48.554;14.454;2022-07-23T01:12:31;93973.00;;;27.90
41940;BMP180;23057;48.554;14.454;2022-07-23T01:15:02;93974.00;;;27.90
41940;BMP180;23057;48.554;14.454;2022-07-23T01:17:33;93964.00;;;27.90
41940;BMP180;23057;48.554;14.454;2022-07-23T01:20:04;93955.00;;;27.90
41940;BMP180;23057;48.554;14.454;2022-07-23T01:22:35;93951.00;;;27.80
41940;BMP180;23057;48.554;14.454;2022-07-23T01:25:06;93942.00;;;27.80
41940;BMP180;23057;48.554;14.454;2022-07-23T01:27:38;93929.00;;;27.80
41940;BMP180;23057;48.554;14.454;2022-07-23T01:30:09;93909.00;;;27.80
41940;BMP180;23057;48.554;14.454;2022-07-23T01:32:40;93902.00;;;27.80
41940;BMP180;23057;48.554;14.454;2022-07-23T01:35:12;93893.00;;;27.80
41940;BMP180;23057;48.554;14.454;2022-07-23T01:37:43;93886.00;;;27.90
41940;BMP180;23057;48.554;14.454;2022-07-23T01:40:14;93892.00;;;27.90
41940;BMP180;23057;48.554;14.454;2022-07-23T01:42:44;93884.00;;;27.90
41940;BMP180;23057;48.554;14.454;2022-07-23T01:45:15;93891.00;;;27.90
41940;BMP180;23057;48.554;14.454;2022-07-23T01:47:46;93885.00;;;27.90
41940;BMP180;23057;48.554;14.454;2022-07-23T01:50:18;93874.00;;;27.90
41940;BMP180;23057;48.554;14.454;2022-07-23T01:52:49;93867.00;;;27.90
41940;BMP180;23057;48.554;14.454;2022-07-23T01:55:20;93855.00;;;27.90
41940;BMP180;23057;48.554;14.454;2022-07-23T01:57:50;93862.00;;;27.80
41940;BMP180;23057;48.554;14.454;2022-07-23T02:00:21;93857.00;;;27.80
41940;BMP180;23057;48.554;14.454;2022-07-23T02:02:52;93856.00;;;27.80
41940;BMP180;23057;48.554;14.454;2022-07-23T02:05:23;93849.00;;;27.80
41940;BMP180;23057;48.554;14.454;2022-07-23T02:07:54;93849.00;;;27.70
41940;BMP180;23057;48.554;14.454;2022-07-23T02:10:26;93846.00;;;27.70
41940;BMP180;23057;48.554;14.454;2022-07-23T02:12:57;93854.00;;;27.60
41940;BMP180;23057;48.554;14.454;2022-07-23T02:15:28;93877.00;;;27.60
41940;BMP180;23057;48.554;14.454;2022-07-23T02:17:59;93885.00;;;27.50
41940;BMP180;23057;48.554;14.454;2022-07-23T02:20:30;93900.00;;;27.40
41940;BMP180;23057;48.554;14.454;2022-07-23T02:23:01;93916.00;;;27.30
41940;BMP180;23057;48.554;14.454;2022-07-23T02:25:33;93928.00;;;27.20
41940;BMP180;23057;48.554;14.454;2022-07-23T02:28:04;93916.00;;;27.20
41940;BMP180;23057;48.554;14.454;2022-07-23T02:30:35;93924.00;;;27.30
41940;BMP180;23057;48.554;14.454;2022-07-23T02:33:08;93916.00;;;27.40
41940;BMP180;23057;48.554;14.454;2022-07-23T02:35:39;93901.00;;;27.40
41940;BMP180;23057;48.554;14.454;2022-07-23T02:38:10;93910.00;;;27.40
41940;BMP180;23057;48.554;14.454;2022-07-23T02:40:40;93906.00;;;27.50
41940;BMP180;23057;48.554;14.454;2022-07-23T02:43:11;93905.00;;;27.50
41940;BMP180;23057;48.554;14.454;2022-07-23T02:45:42;93905.00;;;27.60
41940;BMP180;23057;48.554;14.454;2022-07-23T02:48:13;93921.00;;;27.60
41940;BMP180;23057;48.554;14.454;2022-07-23T02:50:44;93927.00;;;27.70
41940;BMP180;23057;48.554;14.454;2022-07-23T02:53:15;93913.00;;;27.70
41940;BMP180;23057;48.554;14.454;2022-07-23T02:55:46;93908.00;;;27.70
41940;BMP180;23057;48.554;14.454;2022-07-23T02:58:17;93902.00;;;27.70
41940;BMP180;23057;48.554;14.454;2022-07-23T03:00:48;93906.00;;;27.70
41940;BMP180;23057;48.554;14.454;2022-07-23T03:03:20;93901.00;;;27.70
41940;BMP180;23057;48.554;14.454;2022-07-23T03:05:50;93906.00;;;27.70
41940;BMP180;23057;48.554;14.454;2022-07-23T03:08:21;93911.00;;;27.70
41940;BMP180;23057;48.554;14.454;2022-07-23T03:10:52;93907.00;;;27.70
41940;BMP180;23057;48.554;14.454;2022-07-23T03:13:23;93909.00;;;27.70
41940;BMP180;23057;48.554;14.454;2022-07-23T03:15:54;93921.00;;;27.80
41940;BMP180;23057;48.554;14.454;2022-07-23T03:18:24;93915.00;;;27.80
41940;BMP180;23057;48.554;14.454;2022-07-23T03:20:55;93913.00;;;27.80
41940;BMP180;23057;48.554;14.454;2022-07-23T03:23:26;93911.00;;;27.90
41940;BMP180;23057;48.554;14.454;2022-07-23T03:25:57;93910.00;;;27.90
41940;BMP180;23057;48.554;14.454;2022-07-23T03:28:28;93911.00;;;28.00
41940;BMP180;23057;48.554;14.454;2022-07-23T03:30:59;93923.00;;;28.00
41940;BMP180;23057;48.554;14.454;2022-07-23T03:33:30;93922.00;;;28.00
41940;BMP180;23057;48.554;14.454;2022-07-23T03:36:01;93920.00;;;28.00
41940;BMP180;23057;48.554;14.454;2022-07-23T03:38:32;93930.00;;;28.00
41940;BMP180;23057;48.554;14.454;2022-07-23T03:41:02;93933.00;;;28.00
41940;BMP180;23057;48.554;14.454;2022-07-23T03:43:33;93933.00;;;28.00
41940;BMP180;23057;48.554;14.454;2022-07-23T03:46:04;93950.00;;;27.90
41940;BMP180;23057;48.554;14.454;2022-07-23T03:48:35;93952.00;;;27.90
41940;BMP180;23057;48.554;14.454;2022-07-23T03:51:06;93959.00;;;27.80
41940;BMP180;23057;48.554;14.454;2022-07-23T03:53:38;93961.00;;;27.70
41940;BMP180;23057;48.554;14.454;2022-07-23T03:56:10;93966.00;;;27.70
41940;BMP180;23057;48.554;14.454;2022-07-23T03:58:41;93974.00;;;27.70
41940;BMP180;23057;48.554;14.454;2022-07-23T04:01:12;93984.00;;;27.70
41940;BMP180;23057;48.554;14.454;2022-07-23T04:03:43;93998.00;;;27.70
41940;BMP180;23057;48.554;14.454;2022-07-23T04:06:13;94009.00;;;27.70
41940;BMP180;23057;48.554;14.454;2022-07-23T04:08:44;94009.00;;;27.70
41940;BMP180;23057;48.554;14.454;2022-07-23T04:11:15;94006.00;;;27.70
41940;BMP180;23057;48.554;14.454;2022-07-23T04:13:46;93997.00;;;27.70
41940;BMP180;23057;48.554;14.454;2022-07-23T04:16:17;93991.00;;;27.70
41940;BMP180;23057;48.554;14.454;2022-07-23T04:18:48;93997.00;;;27.70
41940;BMP180;23057;48.554;14.454;2022-07-23T04:21:18;93986.00;;;27.80
41940;BMP180;23057;48.554;14.454;2022-07-23T04:23:49;93990.00;;;27.90
41940;BMP180;23057;48.554;14.454;2022-07-23T04:26:20;93990.00;;;28.00
41940;BMP180;23057;48.554;14.454;2022-07-23T04:28:51;93991.00;;;28.10
41940;BMP180;23057;48.554;14.454;2022-07-23T04:31:22;93969.00;;;28.10
41940;BMP180;23057;48.554;14.454;2022-07-23T04:33:53;93970.00;;;28.20
41940;BMP180;23057;48.554;14.454;2022-07-23T04:36:24;93981.00;;;28.40
41940;BMP180;23057;48.554;14.454;2022-07-23T04:38:55;93976.00;;;28.70
41940;BMP180;23057;48.554;14.454;2022-07-23T04:41:25;93987.00;;;28.90
41940;BMP180;23057;48.554;14.454;2022-07-23T04:43:56;93984.00;;;29.30
41940;BMP180;23057;48.554;14.454;2022-07-23T04:46:27;93983.00;;;29.50
41940;BMP180;23057;48.554;14.454;2022-07-23T04:48:58;93978.00;;;29.80
41940;BMP180;23057;48.554;14.454;2022-07-23T04:51:29;93974.00;;;30.00
41940;BMP180;23057;48.554;14.454;2022-07-23T04:54:00;93965.00;;;30.10
41940;BMP180;23057;48.554;14.454;2022-07-23T04:56:31;93966.00;;;30.20
41940;BMP180;23057;48.554;14.454;2022-07-23T04:59:02;93972.00;;;30.30
41940;BMP180;23057;48.554;14.454;2022-07-23T05:01:33;93986.00;;;30.40
41940;BMP180;23057;48.554;14.454;2022-07-23T05:04:04;93974.00;;;30.50
41940;BMP180;23057;48.554;14.454;2022-07-23T05:06:34;93984.00;;;30.50
41940;BMP180;23057;48.554;14.454;2022-07-23T05:09:05;93983.00;;;30.60
41940;BMP180;23057;48.554;14.454;2022-07-23T05:11:36;93980.00;;;30.70
41940;BMP180;23057;48.554;14.454;2022-07-23T05:14:07;93980.00;;;30.80
41940;BMP180;23057;48.554;14.454;2022-07-23T05:16:38;93974.00;;;31.00
41940;BMP180;23057;48.554;14.454;2022-07-23T05:19:09;93986.00;;;31.10
41940;BMP180;23057;48.554;14.454;2022-07-23T05:21:40;94001.00;;;31.20
41940;BMP180;23057;48.554;14.454;2022-07-23T05:24:10;94009.00;;;31.10
41940;BMP180;23057;48.554;14.454;2022-07-23T05:26:41;94019.00;;;31.10
41940;BMP180;23057;48.554;14.454;2022-07-23T05:29:12;94024.00;;;30.90
41940;BMP180;23057;48.554;14.454;2022-07-23T05:31:43;94027.00;;;30.90
41940;BMP180;23057;48.554;14.454;2022-07-23T05:34:14;94024.00;;;30.80
41940;BMP180;23057;48.554;14.454;2022-07-23T05:36:45;94019.00;;;30.70
41940;BMP180;23057;48.554;14.454;2022-07-23T05:39:16;94021.00;;;30.70
41940;BMP180;23057;48.554;14.454;2022-07-23T05:41:46;94021.00;;;30.60
41940;BMP180;23057;48.554;14.454;2022-07-23T05:44:17;94024.00;;;30.60
41940;BMP180;23057;48.554;14.454;2022-07-23T05:46:48;94022.00;;;30.60
41940;BMP180;23057;48.554;14.454;2022-07-23T05:49:19;94023.00;;;30.60
41940;BMP180;23057;48.554;14.454;2022-07-23T05:51:50;94012.00;;;30.60
41940;BMP180;23057;48.554;14.454;2022-07-23T05:54:21;94017.00;;;30.60
41940;BMP180;23057;48.554;14.454;2022-07-23T05:56:52;94008.00;;;30.70
41940;BMP180;23057;48.554;14.454;2022-07-23T05:59:23;94011.00;;;30.70
41940;BMP180;23057;48.554;14.454;2022-07-23T06:01:53;93997.00;;;30.80
41940;BMP180;23057;48.554;14.454;2022-07-23T06:04:24;93994.00;;;30.80
41940;BMP180;23057;48.554;14.454;2022-07-23T06:06:55;93989.00;;;30.80
41940;BMP180;23057;48.554;14.454;2022-07-23T06:09:26;93982.00;;;30.90
41940;BMP180;23057;48.554;14.454;2022-07-23T06:11:57;93976.00;;;30.90
41940;BMP180;23057;48.554;14.454;2022-07-23T06:14:28;93975.00;;;30.80
41940;BMP180;23057;48.554;14.454;2022-07-23T06:16:58;93981.00;;;30.70
41940;BMP180;23057;48.554;14.454;2022-07-23T06:19:29;93981.00;;;30.70
41940;BMP180;23057;48.554;14.454;2022-07-23T06:22:00;93970.00;;;30.70
41940;BMP180;23057;48.554;14.454;2022-07-23T06:24:31;93964.00;;;30.80
41940;BMP180;23057;48.554;14.454;2022-07-23T06:27:02;93965.00;;;30.80
41940;BMP180;23057;48.554;14.454;2022-07-23T06:29:33;93974.00;;;30.90
41940;BMP180;23057;48.554;14.454;2022-07-23T06:32:04;93978.00;;;31.10
41940;BMP180;23057;48.554;14.454;2022-07-23T06:34:35;93972.00;;;31.20
41940;BMP180;23057;48.554;14.454;2022-07-23T06:37:06;93975.00;;;31.40
41940;BMP180;23057;48.554;14.454;2022-07-23T06:39:38;93974.00;;;31.50
41940;BMP180;23057;48.554;14.454;2022-07-23T06:42:08;93984.00;;;31.70
41940;BMP180;23057;48.554;14.454;2022-07-23T06:44:40;93984.00;;;31.80
41940;BMP180;23057;48.554;14.454;2022-07-23T06:47:11;93982.00;;;31.80
41940;BMP180;23057;48.554;14.454;2022-07-23T06:49:42;93985.00;;;31.80
41940;BMP180;23057;48.554;14.454;2022-07-23T06:52:13;93987.00;;;31.70
41940;BMP180;23057;48.554;14.454;2022-07-23T06:54:44;93990.00;;;31.60
41940;BMP180;23057;48.554;14.454;2022-07-23T06:57:14;93989.00;;;31.60
41940;BMP180;23057;48.554;14.454;2022-07-23T06:59:45;93980.00;;;31.60
41940;BMP180;23057;48.554;14.454;2022-07-23T07:02:16;93980.00;;;31.50
41940;BMP180;23057;48.554;14.454;2022-07-23T07:04:47;93997.00;;;31.50
41940;BMP180;23057;48.554;14.454;2022-07-23T07:07:19;94003.00;;;31.40
41940;BMP180;23057;48.554;14.454;2022-07-23T07:09:49;94012.00;;;31.40
41940;BMP180;23057;48.554;14.454;2022-07-23T07:12:20;94010.00;;;31.40
41940;BMP180;23057;48.554;14.454;2022-07-23T07:14:51;94007.00;;;31.50
41940;BMP180;23057;48.554;14.454;2022-07-23T07:17:22;94010.00;;;31.50
41940;BMP180;23057;48.554;14.454;2022-07-23T07:19:52;94011.00;;;31.60
41940;BMP180;23057;48.554;14.454;2022-07-23T07:22:23;94021.00;;;31.60
41940;BMP180;23057;48.554;14.454;2022-07-23T07:24:54;94027.00;;;31.50
41940;BMP180;23057;48.554;14.454;2022-07-23T07:27:25;94014.00;;;31.50
41940;BMP180;23057;48.554;14.454;2022-07-23T07:29:56;94022.00;;;31.40
41940;BMP180;23057;48.554;14.454;2022-07-23T07:32:27;94023.00;;;31.40
41940;BMP180;23057;48.554;14.454;2022-07-23T07:34:58;94022.00;;;31.30
41940;BMP180;23057;48.554;14.454;2022-07-23T07:37:29;94030.00;;;31.20
41940;BMP180;23057;48.554;14.454;2022-07-23T07:40:00;94036.00;;;31.20
41940;BMP180;23057;48.554;14.454;2022-07-23T07:42:31;94045.00;;;31.10
41940;BMP180;23057;48.554;14.454;2022-07-23T07:45:02;94040.00;;;31.00
41940;BMP180;23057;48.554;14.454;2022-07-23T07:47:33;94042.00;;;31.00
41940;BMP180;23057;48.554;14.454;2022-07-23T07:50:04;94040.00;;;31.00
41940;BMP180;23057;48.554;14.454;2022-07-23T07:52:36;94044.00;;;31.00
41940;BMP180;23057;48.554;14.454;2022-07-23T07:55:08;94049.00;;;31.00
41940;BMP180;23057;48.554;14.454;2022-07-23T07:57:40;94051.00;;;31.00
41940;BMP180;23057;48.554;14.454;2022-07-23T08:00:11;94059.00;;;31.00
41940;BMP180;23057;48.554;14.454;2022-07-23T08:02:48;94057.00;;;30.90
41940;BMP180;23057;48.554;14.454;2022-07-23T08:05:26;94054.00;;;30.90
41940;BMP180;23057;48.554;14.454;2022-07-23T08:07:58;94058.00;;;30.90
41940;BMP180;23057;48.554;14.454;2022-07-23T08:10:30;94059.00;;;30.90
41940;BMP180;23057;48.554;14.454;2022-07-23T08:13:01;94063.00;;;30.90
41940;BMP180;23057;48.554;14.454;2022-07-23T08:15:32;94063.00;;;31.00
41940;BMP180;23057;48.554;14.454;2022-07-23T08:18:03;94060.00;;;31.10
41940;BMP180;23057;48.554;14.454;2022-07-23T08:20:34;94067.00;;;31.10
41940;BMP180;23057;48.554;14.454;2022-07-23T08:23:07;94070.00;;;31.10
41940;BMP180;23057;48.554;14.454;2022-07-23T08:25:42;94068.00;;;31.30
41940;BMP180;23057;48.554;14.454;2022-07-23T08:28:14;94065.00;;;31.40
41940;BMP180;23057;48.554;14.454;2022-07-23T08:30:45;94068.00;;;31.50
41940;BMP180;23057;48.554;14.454;2022-07-23T08:33:17;94070.00;;;31.60
41940;BMP180;23057;48.554;14.454;2022-07-23T08:35:50;94067.00;;;31.70
41940;BMP180;23057;48.554;14.454;2022-07-23T08:38:23;94068.00;;;31.80
41940;BMP180;23057;48.554;14.454;2022-07-23T08:40:56;94078.00;;;31.90
41940;BMP180;23057;48.554;14.454;2022-07-23T08:43:32;94081.00;;;31.80
41940;BMP180;23057;48.554;14.454;2022-07-23T08:46:04;94086.00;;;31.80
41940;BMP180;23057;48.554;14.454;2022-07-23T08:48:35;94081.00;;;31.90
41940;BMP180;23057;48.554;14.454;2022-07-23T08:51:08;94079.00;;;31.90
41940;BMP180;23057;48.554;14.454;2022-07-23T08:53:41;94077.00;;;31.90
41940;BMP180;23057;48.554;14.454;2022-07-23T08:56:14;94070.00;;;31.90
41940;BMP180;23057;48.554;14.454;2022-07-23T08:58:45;94071.00;;;31.90
41940;BMP180;23057;48.554;14.454;2022-07-23T09:01:16;94058.00;;;32.00
41940;BMP180;23057;48.554;14.454;2022-07-23T09:03:47;94068.00;;;32.10
41940;BMP180;23057;48.554;14.454;2022-07-23T09:06:17;94078.00;;;32.10
41940;BMP180;23057;48.554;14.454;2022-07-23T09:08:48;94095.00;;;32.10
41940;BMP180;23057;48.554;14.454;2022-07-23T09:11:19;94087.00;;;32.10
41940;BMP180;23057;48.554;14.454;2022-07-23T09:13:52;94082.00;;;32.20
41940;BMP180;23057;48.554;14.454;2022-07-23T09:16:26;94091.00;;;32.30
41940;BMP180;23057;48.554;14.454;2022-07-23T09:19:01;94105.00;;;32.30
41940;BMP180;23057;48.554;14.454;2022-07-23T09:21:38;94115.00;;;32.30
41940;BMP180;23057;48.554;14.454;2022-07-23T09:24:13;94119.00;;;32.30
41940;BMP180;23057;48.554;14.454;2022-07-23T09:26:48;94120.00;;;32.40
41940;BMP180;23057;48.554;14.454;2022-07-23T09:29:25;94122.00;;;32.50
41940;BMP180;23057;48.554;14.454;2022-07-23T09:31:59;94127.00;;;32.70
41940;BMP180;23057;48.554;14.454;2022-07-23T09:34:36;94115.00;;;32.90
41940;BMP180;23057;48.554;14.454;2022-07-23T09:37:14;94122.00;;;32.90
41940;BMP180;23057;48.554;14.454;2022-07-23T09:39:47;94115.00;;;32.90
41940;BMP180;23057;48.554;14.454;2022-07-23T09:42:28;94113.00;;;32.90
41940;BMP180;23057;48.554;14.454;2022-07-23T09:44:59;94122.00;;;32.90
41940;BMP180;23057;48.554;14.454;2022-07-23T09:47:32;94123.00;;;32.90
41940;BMP180;23057;48.554;14.454;2022-07-23T09:50:07;94120.00;;;33.00
41940;BMP180;23057;48.554;14.454;2022-07-23T09:52:47;94116.00;;;33.10
41940;BMP180;23057;48.554;14.454;2022-07-23T09:55:31;94113.00;;;33.10
41940;BMP180;23057;48.554;14.454;2022-07-23T09:58:06;94112.00;;;33.20
41940;BMP180;23057;48.554;14.454;2022-07-23T10:00:44;94102.00;;;33.20
41940;BMP180;23057;48.554;14.454;2022-07-23T10:03:20;94101.00;;;33.30
41940;BMP180;23057;48.554;14.454;2022-07-23T10:05:52;94105.00;;;33.40
41940;BMP180;23057;48.554;14.454;2022-07-23T10:08:23;94097.00;;;33.40
41940;BMP180;23057;48.554;14.454;2022-07-23T10:10:55;94096.00;;;33.60
41940;BMP180;23057;48.554;14.454;2022-07-23T10:13:26;94094.00;;;33.80
41940;BMP180;23057;48.554;14.454;2022-07-23T10:16:16;94085.00;;;33.80
41940;BMP180;23057;48.554;14.454;2022-07-23T10:18:48;94090.00;;;33.80
41940;BMP180;23057;48.554;14.454;2022-07-23T10:21:49;94093.00;;;34.10
41940;BMP180;23057;48.554;14.454;2022-07-23T10:33:17;94086.00;;;34.70
41940;BMP180;23057;48.554;14.454;2022-07-23T10:36:17;94083.00;;;35.00
41940;BMP180;23057;48.554;14.454;2022-07-23T10:41:37;94075.00;;;35.30
41940;BMP180;23057;48.554;14.454;2022-07-23T10:44:12;94075.00;;;35.60
41940;BMP180;23057;48.554;14.454;2022-07-23T10:49:51;94068.00;;;35.90
41940;BMP180;23057;48.554;14.454;2022-07-23T10:52:24;94070.00;;;35.90
41940;BMP180;23057;48.554;14.454;2022-07-23T10:57:50;94070.00;;;36.30
41940;BMP180;23057;48.554;14.454;2022-07-23T11:00:26;94068.00;;;36.30
41940;BMP180;23057;48.554;14.454;2022-07-23T11:03:04;94068.00;;;36.20
41940;BMP180;23057;48.554;14.454;2022-07-23T11:05:55;94063.00;;;36.20
41940;BMP180;23057;48.554;14.454;2022-07-23T11:08:26;94060.00;;;36.20
41940;BMP180;23057;48.554;14.454;2022-07-23T11:16:18;94062.00;;;36.10
41940;BMP180;23057;48.554;14.454;2022-07-23T11:18:59;94049.00;;;36.00
41940;BMP180;23057;48.554;14.454;2022-07-23T11:24:17;94050.00;;;35.60
41940;BMP180;23057;48.554;14.454;2022-07-23T11:26:52;94054.00;;;35.40
41940;BMP180;23057;48.554;14.454;2022-07-23T11:32:04;94051.00;;;35.40
41940;BMP180;23057;48.554;14.454;2022-07-23T11:34:41;94055.00;;;35.50
41940;BMP180;23057;48.554;14.454;2022-07-23T11:37:36;94054.00;;;35.40
41940;BMP180;23057;48.554;14.454;2022-07-23T11:40:11;94058.00;;;35.50
41940;BMP180;23057;48.554;14.454;2022-07-23T11:42:55;94059.00;;;35.50
41940;BMP180;23057;48.554;14.454;2022-07-23T11:45:33;94053.00;;;35.50
41940;BMP180;23057;48.554;14.454;2022-07-23T11:48:28;94048.00;;;35.40
41940;BMP180;23057;48.554;14.454;2022-07-23T11:51:00;94047.00;;;35.30
41940;BMP180;23057;48.554;14.454;2022-07-23T11:53:33;94050.00;;;35.30
41940;BMP180;23057;48.554;14.454;2022-07-23T11:56:10;94056.00;;;35.40
41940;BMP180;23057;48.554;14.454;2022-07-23T11:58:54;94052.00;;;35.50
41940;BMP180;23057;48.554;14.454;2022-07-23T12:01:26;94053.00;;;35.60
41940;BMP180;23057;48.554;14.454;2022-07-23T12:03:57;94051.00;;;35.60
41940;BMP180;23057;48.554;14.454;2022-07-23T12:06:27;94052.00;;;35.60
41940;BMP180;23057;48.554;14.454;2022-07-23T12:08:58;94047.00;;;35.60
41940;BMP180;23057;48.554;14.454;2022-07-23T12:11:29;94040.00;;;35.70
41940;BMP180;23057;48.554;14.454;2022-07-23T12:14:00;94049.00;;;35.70
41940;BMP180;23057;48.554;14.454;2022-07-23T12:16:31;94047.00;;;35.80
41940;BMP180;23057;48.554;14.454;2022-07-23T12:19:02;94047.00;;;35.80
41940;BMP180;23057;48.554;14.454;2022-07-23T12:21:33;94046.00;;;36.00
41940;BMP180;23057;48.554;14.454;2022-07-23T12:24:07;94048.00;;;36.00
41940;BMP180;23057;48.554;14.454;2022-07-23T12:26:38;94044.00;;;36.00
41940;BMP180;23057;48.554;14.454;2022-07-23T12:29:09;94048.00;;;36.00
41940;BMP180;23057;48.554;14.454;2022-07-23T12:31:40;94039.00;;;36.00
41940;BMP180;23057;48.554;14.454;2022-07-23T12:34:15;94040.00;;;36.10
41940;BMP180;23057;48.554;14.454;2022-07-23T12:36:46;94046.00;;;36.20
41940;BMP180;23057;48.554;14.454;2022-07-23T12:39:31;94039.00;;;36.20
41940;BMP180;23057;48.554;14.454;2022-07-23T12:42:02;94037.00;;;36.20
41940;BMP180;23057;48.554;14.454;2022-07-23T12:45:10;94042.00;;;36.10
41940;BMP180;23057;48.554;14.454;2022-07-23T12:53:16;94025.00;;;35.60
41940;BMP180;23057;48.554;14.454;2022-07-23T12:56:00;94018.00;;;35.50
41940;BMP180;23057;48.554;14.454;2022-07-23T12:58:49;94015.00;;;35.50
41940;BMP180;23057;48.554;14.454;2022-07-23T13:01:35;94012.00;;;35.60
41940;BMP180;23057;48.554;14.454;2022-07-23T13:06:46;94019.00;;;35.70
41940;BMP180;23057;48.554;14.454;2022-07-23T13:09:25;94020.00;;;35.90
41940;BMP180;23057;48.554;14.454;2022-07-23T13:11:57;94020.00;;;36.00
41940;BMP180;23057;48.554;14.454;2022-07-23T13:14:28;94020.00;;;36.10
41940;BMP180;23057;48.554;14.454;2022-07-23T13:16:59;94017.00;;;36.20
41940;BMP180;23057;48.554;14.454;2022-07-23T13:19:30;94017.00;;;36.20
41940;BMP180;23057;48.554;14.454;2022-07-23T13:22:01;94011.00;;;36.30
41940;BMP180;23057;48.554;14.454;2022-07-23T13:24:32;94013.00;;;36.40
41940;BMP180;23057;48.554;14.454;2022-07-23T13:27:05;94011.00;;;36.30
41940;BMP180;23057;48.554;14.454;2022-07-23T13:29:37;94013.00;;;36.30
41940;BMP180;23057;48.554;14.454;2022-07-23T13:32:08;94011.00;;;36.50
41940;BMP180;23057;48.554;14.454;2022-07-23T13:34:39;94012.00;;;36.50
41940;BMP180;23057;48.554;14.454;2022-07-23T13:37:10;94013.00;;;36.50
41940;BMP180;23057;48.554;14.454;2022-07-23T13:39:43;94015.00;;;36.50
41940;BMP180;23057;48.554;14.454;2022-07-23T13:42:14;94014.00;;;36.40
41940;BMP180;23057;48.554;14.454;2022-07-23T13:44:45;94008.00;;;36.50
41940;BMP180;23057;48.554;14.454;2022-07-23T13:47:15;94000.00;;;36.40
41940;BMP180;23057;48.554;14.454;2022-07-23T13:49:46;94000.00;;;36.20
41940;BMP180;23057;48.554;14.454;2022-07-23T13:52:17;94007.00;;;36.00
41940;BMP180;23057;48.554;14.454;2022-07-23T13:54:48;93998.00;;;35.90
41940;BMP180;23057;48.554;14.454;2022-07-23T13:57:19;93998.00;;;35.90
41940;BMP180;23057;48.554;14.454;2022-07-23T13:59:49;94000.00;;;35.80
41940;BMP180;23057;48.554;14.454;2022-07-23T14:02:20;93994.00;;;35.70
41940;BMP180;23057;48.554;14.454;2022-07-23T14:04:52;94002.00;;;35.70
41940;BMP180;23057;48.554;14.454;2022-07-23T14:07:23;94002.00;;;35.70
41940;BMP180;23057;48.554;14.454;2022-07-23T14:09:54;94008.00;;;35.70
41940;BMP180;23057;48.554;14.454;2022-07-23T14:12:25;94005.00;;;35.60
41940;BMP180;23057;48.554;14.454;2022-07-23T14:14:56;94007.00;;;35.60
41940;BMP180;23057;48.554;14.454;2022-07-23T14:17:27;94002.00;;;35.60
41940;BMP180;23057;48.554;14.454;2022-07-23T14:19:58;94008.00;;;35.50
41940;BMP180;23057;48.554;14.454;2022-07-23T14:22:29;94007.00;;;35.50
41940;BMP180;23057;48.554;14.454;2022-07-23T14:25:00;94007.00;;;35.50
41940;BMP180;23057;48.554;14.454;2022-07-23T14:27:31;93998.00;;;35.50
41940;BMP180;23057;48.554;14.454;2022-07-23T14:30:03;94003.00;;;35.40
41940;BMP180;23057;48.554;14.454;2022-07-23T14:32:36;93999.00;;;35.30
41940;BMP180;23057;48.554;14.454;2022-07-23T14:35:08;93998.00;;;35.30
41940;BMP180;23057;48.554;14.454;2022-07-23T14:37:39;93993.00;;;35.40
41940;BMP180;23057;48.554;14.454;2022-07-23T14:40:10;93999.00;;;35.40
41940;BMP180;23057;48.554;14.454;2022-07-23T14:42:41;93997.00;;;35.40
41940;BMP180;23057;48.554;14.454;2022-07-23T14:45:11;93987.00;;;35.30
41940;BMP180;23057;48.554;14.454;2022-07-23T14:47:42;93997.00;;;35.30
41940;BMP180;23057;48.554;14.454;2022-07-23T14:50:14;94005.00;;;35.20
41940;BMP180;23057;48.554;14.454;2022-07-23T14:52:45;94003.00;;;35.20
41940;BMP180;23057;48.554;14.454;2022-07-23T14:55:16;94004.00;;;35.10
41940;BMP180;23057;48.554;14.454;2022-07-23T14:57:49;94007.00;;;35.10
41940;BMP180;23057;48.554;14.454;2022-07-23T15:00:20;94008.00;;;35.00
41940;BMP180;23057;48.554;14.454;2022-07-23T15:02:52;94002.00;;;35.00